sensor_id;sensor_type;location;lat;lon;timestamp;P1;durP1;ratioP1;P2;durP2;ratioP2
11328;SDS011;5719;42.714;23.732;2022-07-12T00:02:19;2.30;;;2.10;;
11328;SDS011;5719;42.714;23.732;2022-07-12T00:04:46;1.92;;;1.83;;
11328;SDS011;5719;42.714;23.732;2022-07-12T00:07:14;3.42;;;2.10;;
11328;SDS011;5719;42.714;23.732;2022-07-12T00:09:41;2.20;;;2.10;;
11328;SDS011;5719;42.714;23.732;2022-07-12T00:12:08;2.10;;;2.00;;
11328;SDS011;5719;42.714;23.732;2022-07-12T00:14:36;2.03;;;1.92;;
11328;SDS011;5719;42.714;23.732;2022-07-12T00:17:03;2.15;;;1.95;;
11328;SDS011;5719;42.714;23.732;2022-07-12T00:19:30;1.73;;;1.63;;
11328;SDS011;5719;42.714;23.732;2022-07-12T00:21:57;4.07;;;2.03;;
11328;SDS011;5719;42.714;23.732;2022-07-12T00:24:26;2.28;;;2.00;;
11328;SDS011;5719;42.714;23.732;2022-07-12T00:26:52;2.35;;;2.15;;
11328;SDS011;5719;42.714;23.732;2022-07-12T00:29:19;1.90;;;1.80;;
11328;SDS011;5719;42.714;23.732;2022-07-12T00:31:47;1.90;;;1.80;;
11328;SDS011;5719;42.714;23.732;2022-07-12T00:34:14;1.90;;;1.80;;
11328;SDS011;5719;42.714;23.732;2022-07-12T00:36:40;2.55;;;2.00;;
11328;SDS011;5719;42.714;23.732;2022-07-12T00:39:07;2.30;;;2.10;;
11328;SDS011;5719;42.714;23.732;2022-07-12T00:41:35;2.30;;;2.20;;
11328;SDS011;5719;42.714;23.732;2022-07-12T00:44:02;5.50;;;2.30;;
11328;SDS011;5719;42.714;23.732;2022-07-12T00:46:29;2.08;;;1.98;;
11328;SDS011;5719;42.714;23.732;2022-07-12T00:48:57;2.10;;;2.00;;
11328;SDS011;5719;42.714;23.732;2022-07-12T00:51:24;2.47;;;1.70;;
11328;SDS011;5719;42.714;23.732;2022-07-12T00:53:52;2.20;;;2.00;;
11328;SDS011;5719;42.714;23.732;2022-07-12T00:56:22;2.13;;;1.83;;
11328;SDS011;5719;42.714;23.732;2022-07-12T00:58:50;3.70;;;2.00;;
11328;SDS011;5719;42.714;23.732;2022-07-12T01:01:17;2.25;;;1.90;;
11328;SDS011;5719;42.714;23.732;2022-07-12T01:03:44;2.10;;;2.00;;
11328;SDS011;5719;42.714;23.732;2022-07-12T01:06:11;2.17;;;2.08;;
11328;SDS011;5719;42.714;23.732;2022-07-12T01:08:38;2.10;;;2.00;;
11328;SDS011;5719;42.714;23.732;2022-07-12T01:11:06;4.40;;;2.00;;
11328;SDS011;5719;42.714;23.732;2022-07-12T01:13:34;2.25;;;2.03;;
11328;SDS011;5719;42.714;23.732;2022-07-12T01:16:02;2.90;;;2.00;;
11328;SDS011;5719;42.714;23.732;2022-07-12T01:18:31;2.13;;;2.03;;
11328;SDS011;5719;42.714;23.732;2022-07-12T01:21:00;3.80;;;2.00;;
11328;SDS011;5719;42.714;23.732;2022-07-12T01:23:31;2.10;;;2.00;;
11328;SDS011;5719;42.714;23.732;2022-07-12T01:25:59;2.70;;;2.05;;
11328;SDS011;5719;42.714;23.732;2022-07-12T01:28:26;3.60;;;2.10;;
11328;SDS011;5719;42.714;23.732;2022-07-12T01:30:53;2.85;;;2.40;;
11328;SDS011;5719;42.714;23.732;2022-07-12T01:33:20;4.68;;;2.25;;
11328;SDS011;5719;42.714;23.732;2022-07-12T01:35:47;2.13;;;2.03;;
11328;SDS011;5719;42.714;23.732;2022-07-12T01:38:15;4.78;;;2.90;;
11328;SDS011;5719;42.714;23.732;2022-07-12T01:40:44;3.05;;;1.95;;
11328;SDS011;5719;42.714;23.732;2022-07-12T01:43:11;4.13;;;2.10;;
11328;SDS011;5719;42.714;23.732;2022-07-12T01:45:38;2.35;;;2.15;;
11328;SDS011;5719;42.714;23.732;2022-07-12T01:48:06;2.53;;;2.33;;
11328;SDS011;5719;42.714;23.732;2022-07-12T01:50:33;2.60;;;2.40;;
11328;SDS011;5719;42.714;23.732;2022-07-12T01:53:00;2.40;;;2.20;;
11328;SDS011;5719;42.714;23.732;2022-07-12T01:55:27;4.88;;;2.42;;
11328;SDS011;5719;42.714;23.732;2022-07-12T01:57:56;2.10;;;2.00;;
11328;SDS011;5719;42.714;23.732;2022-07-12T02:00:24;3.22;;;2.20;;
11328;SDS011;5719;42.714;23.732;2022-07-12T02:02:52;2.30;;;2.20;;
11328;SDS011;5719;42.714;23.732;2022-07-12T02:05:19;2.90;;;2.40;;
11328;SDS011;5719;42.714;23.732;2022-07-12T02:07:46;2.00;;;1.90;;
11328;SDS011;5719;42.714;23.732;2022-07-12T02:10:15;2.33;;;2.22;;
11328;SDS011;5719;42.714;23.732;2022-07-12T02:12:42;2.10;;;2.00;;
11328;SDS011;5719;42.714;23.732;2022-07-12T02:15:10;2.20;;;2.10;;
11328;SDS011;5719;42.714;23.732;2022-07-12T02:17:37;2.33;;;2.20;;
11328;SDS011;5719;42.714;23.732;2022-07-12T02:20:04;2.55;;;2.28;;
11328;SDS011;5719;42.714;23.732;2022-07-12T02:22:32;2.30;;;2.20;;
11328;SDS011;5719;42.714;23.732;2022-07-12T02:25:00;4.40;;;2.25;;
11328;SDS011;5719;42.714;23.732;2022-07-12T02:27:26;2.38;;;2.28;;
11328;SDS011;5719;42.714;23.732;2022-07-12T02:29:53;3.22;;;2.40;;
11328;SDS011;5719;42.714;23.732;2022-07-12T02:32:22;2.33;;;2.17;;
11328;SDS011;5719;42.714;23.732;2022-07-12T02:34:48;2.28;;;2.10;;
11328;SDS011;5719;42.714;23.732;2022-07-12T02:37:15;4.35;;;2.40;;
11328;SDS011;5719;42.714;23.732;2022-07-12T02:39:42;2.30;;;2.20;;
11328;SDS011;5719;42.714;23.732;2022-07-12T02:42:09;3.95;;;2.67;;
11328;SDS011;5719;42.714;23.732;2022-07-12T02:44:36;2.30;;;2.20;;
11328;SDS011;5719;42.714;23.732;2022-07-12T02:47:03;2.42;;;2.33;;
11328;SDS011;5719;42.714;23.732;2022-07-12T02:49:32;3.03;;;2.45;;
11328;SDS011;5719;42.714;23.732;2022-07-12T02:51:58;2.83;;;2.33;;
11328;SDS011;5719;42.714;23.732;2022-07-12T02:54:25;2.40;;;2.20;;
11328;SDS011;5719;42.714;23.732;2022-07-12T02:56:52;2.15;;;2.05;;
11328;SDS011;5719;42.714;23.732;2022-07-12T02:59:19;2.90;;;2.17;;
11328;SDS011;5719;42.714;23.732;2022-07-12T03:01:46;2.50;;;2.30;;
11328;SDS011;5719;42.714;23.732;2022-07-12T03:04:13;4.35;;;2.50;;
11328;SDS011;5719;42.714;23.732;2022-07-12T03:06:41;2.63;;;2.42;;
11328;SDS011;5719;42.714;23.732;2022-07-12T03:09:08;2.47;;;2.28;;
11328;SDS011;5719;42.714;23.732;2022-07-12T03:11:35;4.07;;;2.40;;
11328;SDS011;5719;42.714;23.732;2022-07-12T03:14:01;2.30;;;2.20;;
11328;SDS011;5719;42.714;23.732;2022-07-12T03:16:28;2.65;;;2.45;;
11328;SDS011;5719;42.714;23.732;2022-07-12T03:18:55;2.58;;;2.38;;
11328;SDS011;5719;42.714;23.732;2022-07-12T03:21:22;2.30;;;2.20;;
11328;SDS011;5719;42.714;23.732;2022-07-12T03:23:50;2.53;;;2.40;;
11328;SDS011;5719;42.714;23.732;2022-07-12T03:26:17;3.47;;;2.55;;
11328;SDS011;5719;42.714;23.732;2022-07-12T03:28:44;4.10;;;2.47;;
11328;SDS011;5719;42.714;23.732;2022-07-12T03:31:11;2.50;;;2.35;;
11328;SDS011;5719;42.714;23.732;2022-07-12T03:33:38;3.40;;;2.40;;
11328;SDS011;5719;42.714;23.732;2022-07-12T03:36:05;2.47;;;2.30;;
11328;SDS011;5719;42.714;23.732;2022-07-12T03:38:33;2.88;;;2.60;;
11328;SDS011;5719;42.714;23.732;2022-07-12T03:41:02;3.05;;;2.50;;
11328;SDS011;5719;42.714;23.732;2022-07-12T03:43:29;2.58;;;2.30;;
11328;SDS011;5719;42.714;23.732;2022-07-12T03:45:56;4.43;;;2.80;;
11328;SDS011;5719;42.714;23.732;2022-07-12T03:48:23;5.40;;;2.70;;
11328;SDS011;5719;42.714;23.732;2022-07-12T03:50:50;4.40;;;2.55;;
11328;SDS011;5719;42.714;23.732;2022-07-12T03:53:16;2.55;;;2.38;;
11328;SDS011;5719;42.714;23.732;2022-07-12T03:55:43;2.90;;;2.70;;
11328;SDS011;5719;42.714;23.732;2022-07-12T03:58:12;3.08;;;2.88;;
11328;SDS011;5719;42.714;23.732;2022-07-12T04:00:38;3.33;;;2.97;;
11328;SDS011;5719;42.714;23.732;2022-07-12T04:03:08;3.00;;;2.80;;
11328;SDS011;5719;42.714;23.732;2022-07-12T04:05:36;3.88;;;3.30;;
11328;SDS011;5719;42.714;23.732;2022-07-12T04:08:03;3.20;;;3.00;;
11328;SDS011;5719;42.714;23.732;2022-07-12T04:10:30;3.67;;;3.47;;
11328;SDS011;5719;42.714;23.732;2022-07-12T04:12:57;3.88;;;3.58;;
11328;SDS011;5719;42.714;23.732;2022-07-12T04:15:25;4.05;;;3.75;;
11328;SDS011;5719;42.714;23.732;2022-07-12T04:17:52;3.95;;;3.58;;
11328;SDS011;5719;42.714;23.732;2022-07-12T04:20:19;4.47;;;3.45;;
11328;SDS011;5719;42.714;23.732;2022-07-12T04:22:46;4.35;;;3.80;;
11328;SDS011;5719;42.714;23.732;2022-07-12T04:25:13;4.38;;;3.63;;
11328;SDS011;5719;42.714;23.732;2022-07-12T04:27:40;4.32;;;4.00;;
11328;SDS011;5719;42.714;23.732;2022-07-12T04:30:07;4.20;;;3.80;;
11328;SDS011;5719;42.714;23.732;2022-07-12T04:32:36;5.82;;;3.80;;
11328;SDS011;5719;42.714;23.732;2022-07-12T04:35:03;9.32;;;4.57;;
11328;SDS011;5719;42.714;23.732;2022-07-12T04:37:31;4.18;;;3.80;;
11328;SDS011;5719;42.714;23.732;2022-07-12T04:39:58;5.93;;;4.15;;
11328;SDS011;5719;42.714;23.732;2022-07-12T04:42:25;4.47;;;4.07;;
11328;SDS011;5719;42.714;23.732;2022-07-12T04:44:53;5.65;;;4.07;;
11328;SDS011;5719;42.714;23.732;2022-07-12T04:47:20;5.00;;;4.40;;
11328;SDS011;5719;42.714;23.732;2022-07-12T04:49:48;4.85;;;4.35;;
11328;SDS011;5719;42.714;23.732;2022-07-12T04:52:15;5.15;;;4.65;;
11328;SDS011;5719;42.714;23.732;2022-07-12T04:54:42;6.45;;;4.88;;
11328;SDS011;5719;42.714;23.732;2022-07-12T04:57:09;5.25;;;4.75;;
11328;SDS011;5719;42.714;23.732;2022-07-12T04:59:36;4.95;;;4.60;;
11328;SDS011;5719;42.714;23.732;2022-07-12T05:02:03;5.18;;;4.20;;
11328;SDS011;5719;42.714;23.732;2022-07-12T05:04:31;6.35;;;4.57;;
11328;SDS011;5719;42.714;23.732;2022-07-12T05:07:00;6.22;;;4.60;;
11328;SDS011;5719;42.714;23.732;2022-07-12T05:09:27;4.68;;;4.10;;
11328;SDS011;5719;42.714;23.732;2022-07-12T05:11:54;8.00;;;4.25;;
11328;SDS011;5719;42.714;23.732;2022-07-12T05:14:21;6.22;;;4.50;;
11328;SDS011;5719;42.714;23.732;2022-07-12T05:16:47;4.43;;;3.95;;
11328;SDS011;5719;42.714;23.732;2022-07-12T05:19:14;11.15;;;4.40;;
11328;SDS011;5719;42.714;23.732;2022-07-12T05:21:42;7.18;;;4.20;;
11328;SDS011;5719;42.714;23.732;2022-07-12T05:24:10;3.97;;;3.45;;
11328;SDS011;5719;42.714;23.732;2022-07-12T05:26:37;3.40;;;3.10;;
11328;SDS011;5719;42.714;23.732;2022-07-12T05:29:04;3.15;;;2.88;;
11328;SDS011;5719;42.714;23.732;2022-07-12T05:31:31;4.55;;;2.97;;
11328;SDS011;5719;42.714;23.732;2022-07-12T05:33:58;4.20;;;3.05;;
11328;SDS011;5719;42.714;23.732;2022-07-12T05:36:25;6.97;;;3.17;;
11328;SDS011;5719;42.714;23.732;2022-07-12T05:38:52;3.92;;;3.17;;
11328;SDS011;5719;42.714;23.732;2022-07-12T05:41:20;3.38;;;2.50;;
11328;SDS011;5719;42.714;23.732;2022-07-12T05:43:47;2.75;;;2.40;;
11328;SDS011;5719;42.714;23.732;2022-07-12T05:46:14;3.08;;;2.78;;
11328;SDS011;5719;42.714;23.732;2022-07-12T05:48:41;2.65;;;2.45;;
11328;SDS011;5719;42.714;23.732;2022-07-12T05:51:08;2.88;;;2.60;;
11328;SDS011;5719;42.714;23.732;2022-07-12T05:53:52;4.70;;;2.70;;
11328;SDS011;5719;42.714;23.732;2022-07-12T05:56:21;5.53;;;2.40;;
11328;SDS011;5719;42.714;23.732;2022-07-12T05:58:48;5.10;;;2.70;;
11328;SDS011;5719;42.714;23.732;2022-07-12T06:01:15;8.98;;;2.28;;
11328;SDS011;5719;42.714;23.732;2022-07-12T06:03:43;2.53;;;2.30;;
11328;SDS011;5719;42.714;23.732;2022-07-12T06:06:10;3.13;;;2.25;;
11328;SDS011;5719;42.714;23.732;2022-07-12T06:08:37;3.05;;;2.10;;
11328;SDS011;5719;42.714;23.732;2022-07-12T06:11:04;4.20;;;2.03;;
11328;SDS011;5719;42.714;23.732;2022-07-12T06:13:32;4.80;;;2.15;;
11328;SDS011;5719;42.714;23.732;2022-07-12T06:15:59;2.63;;;2.42;;
11328;SDS011;5719;42.714;23.732;2022-07-12T06:18:26;9.07;;;2.00;;
11328;SDS011;5719;42.714;23.732;2022-07-12T06:20:53;4.53;;;2.30;;
11328;SDS011;5719;42.714;23.732;2022-07-12T06:23:20;2.58;;;2.20;;
11328;SDS011;5719;42.714;23.732;2022-07-12T06:25:48;6.22;;;2.40;;
11328;SDS011;5719;42.714;23.732;2022-07-12T06:28:15;5.70;;;2.22;;
11328;SDS011;5719;42.714;23.732;2022-07-12T06:30:43;7.32;;;2.25;;
11328;SDS011;5719;42.714;23.732;2022-07-12T06:33:10;5.32;;;2.05;;
11328;SDS011;5719;42.714;23.732;2022-07-12T06:35:37;6.28;;;1.50;;
11328;SDS011;5719;42.714;23.732;2022-07-12T06:38:04;6.22;;;2.05;;
11328;SDS011;5719;42.714;23.732;2022-07-12T06:40:31;1.75;;;1.60;;
11328;SDS011;5719;42.714;23.732;2022-07-12T06:42:58;5.70;;;1.50;;
11328;SDS011;5719;42.714;23.732;2022-07-12T06:45:25;4.75;;;1.63;;
11328;SDS011;5719;42.714;23.732;2022-07-12T06:47:53;9.02;;;1.67;;
11328;SDS011;5719;42.714;23.732;2022-07-12T06:50:20;6.20;;;1.55;;
11328;SDS011;5719;42.714;23.732;2022-07-12T06:52:47;7.57;;;1.70;;
11328;SDS011;5719;42.714;23.732;2022-07-12T06:55:14;5.45;;;1.60;;
11328;SDS011;5719;42.714;23.732;2022-07-12T06:57:41;3.45;;;1.10;;
11328;SDS011;5719;42.714;23.732;2022-07-12T07:00:08;3.22;;;1.30;;
11328;SDS011;5719;42.714;23.732;2022-07-12T07:02:35;4.93;;;1.65;;
11328;SDS011;5719;42.714;23.732;2022-07-12T07:05:05;11.57;;;2.22;;
11328;SDS011;5719;42.714;23.732;2022-07-12T07:07:33;2.47;;;1.40;;
11328;SDS011;5719;42.714;23.732;2022-07-12T07:10:00;3.47;;;1.10;;
11328;SDS011;5719;42.714;23.732;2022-07-12T07:12:27;3.60;;;1.67;;
11328;SDS011;5719;42.714;23.732;2022-07-12T07:14:54;2.78;;;1.30;;
11328;SDS011;5719;42.714;23.732;2022-07-12T07:17:20;4.43;;;1.55;;
11328;SDS011;5719;42.714;23.732;2022-07-12T07:19:47;3.15;;;1.38;;
11328;SDS011;5719;42.714;23.732;2022-07-12T07:22:16;2.90;;;1.38;;
11328;SDS011;5719;42.714;23.732;2022-07-12T07:24:43;9.27;;;1.50;;
11328;SDS011;5719;42.714;23.732;2022-07-12T07:27:11;2.58;;;1.08;;
11328;SDS011;5719;42.714;23.732;2022-07-12T07:29:38;3.65;;;1.45;;
11328;SDS011;5719;42.714;23.732;2022-07-12T07:32:28;6.60;;;1.42;;
11328;SDS011;5719;42.714;23.732;2022-07-12T07:34:54;6.10;;;1.20;;
11328;SDS011;5719;42.714;23.732;2022-07-12T07:37:23;7.85;;;1.40;;
11328;SDS011;5719;42.714;23.732;2022-07-12T07:39:50;7.53;;;1.45;;
11328;SDS011;5719;42.714;23.732;2022-07-12T07:42:16;3.20;;;1.33;;
11328;SDS011;5719;42.714;23.732;2022-07-12T07:44:44;5.00;;;1.60;;
11328;SDS011;5719;42.714;23.732;2022-07-12T07:47:11;6.47;;;1.40;;
11328;SDS011;5719;42.714;23.732;2022-07-12T07:49:38;2.80;;;1.15;;
11328;SDS011;5719;42.714;23.732;2022-07-12T07:52:05;4.32;;;1.42;;
11328;SDS011;5719;42.714;23.732;2022-07-12T07:54:33;2.92;;;1.20;;
11328;SDS011;5719;42.714;23.732;2022-07-12T07:57:00;4.13;;;1.40;;
11328;SDS011;5719;42.714;23.732;2022-07-12T07:59:27;3.97;;;1.20;;
11328;SDS011;5719;42.714;23.732;2022-07-12T08:01:54;5.03;;;1.10;;
11328;SDS011;5719;42.714;23.732;2022-07-12T08:04:21;7.57;;;1.52;;
11328;SDS011;5719;42.714;23.732;2022-07-12T08:06:48;4.40;;;1.00;;
11328;SDS011;5719;42.714;23.732;2022-07-12T08:09:16;5.50;;;1.65;;
11328;SDS011;5719;42.714;23.732;2022-07-12T08:11:44;5.45;;;1.10;;
11328;SDS011;5719;42.714;23.732;2022-07-12T08:14:11;2.15;;;0.90;;
11328;SDS011;5719;42.714;23.732;2022-07-12T08:16:38;2.90;;;1.30;;
11328;SDS011;5719;42.714;23.732;2022-07-12T08:19:05;4.82;;;1.05;;
11328;SDS011;5719;42.714;23.732;2022-07-12T08:21:32;5.07;;;1.02;;
11328;SDS011;5719;42.714;23.732;2022-07-12T08:23:59;9.32;;;1.30;;
11328;SDS011;5719;42.714;23.732;2022-07-12T08:26:27;7.88;;;1.38;;
11328;SDS011;5719;42.714;23.732;2022-07-12T08:28:56;2.75;;;1.00;;
11328;SDS011;5719;42.714;23.732;2022-07-12T08:31:22;2.50;;;1.13;;
11328;SDS011;5719;42.714;23.732;2022-07-12T08:33:50;6.63;;;1.15;;
11328;SDS011;5719;42.714;23.732;2022-07-12T08:36:17;3.72;;;1.10;;
11328;SDS011;5719;42.714;23.732;2022-07-12T08:38:44;5.45;;;1.38;;
11328;SDS011;5719;42.714;23.732;2022-07-12T08:41:11;5.22;;;0.93;;
11328;SDS011;5719;42.714;23.732;2022-07-12T08:43:39;5.93;;;0.98;;
11328;SDS011;5719;42.714;23.732;2022-07-12T08:46:08;2.60;;;1.00;;
11328;SDS011;5719;42.714;23.732;2022-07-12T08:48:36;4.75;;;1.05;;
11328;SDS011;5719;42.714;23.732;2022-07-12T08:51:04;3.72;;;1.10;;
11328;SDS011;5719;42.714;23.732;2022-07-12T08:53:33;5.63;;;0.95;;
11328;SDS011;5719;42.714;23.732;2022-07-12T08:56:00;3.92;;;1.10;;
11328;SDS011;5719;42.714;23.732;2022-07-12T08:58:29;3.20;;;0.90;;
11328;SDS011;5719;42.714;23.732;2022-07-12T09:00:56;2.20;;;1.00;;
11328;SDS011;5719;42.714;23.732;2022-07-12T09:03:25;2.05;;;0.82;;
11328;SDS011;5719;42.714;23.732;2022-07-12T09:05:54;2.80;;;1.10;;
11328;SDS011;5719;42.714;23.732;2022-07-12T09:08:26;3.42;;;1.02;;
11328;SDS011;5719;42.714;23.732;2022-07-12T09:10:58;2.45;;;1.23;;
11328;SDS011;5719;42.714;23.732;2022-07-12T09:13:46;1.20;;;0.90;;
11328;SDS011;5719;42.714;23.732;2022-07-12T09:16:14;3.67;;;0.93;;
11328;SDS011;5719;42.714;23.732;2022-07-12T09:18:44;2.55;;;0.90;;
11328;SDS011;5719;42.714;23.732;2022-07-12T09:21:20;2.05;;;0.70;;
11328;SDS011;5719;42.714;23.732;2022-07-12T09:23:51;3.00;;;0.70;;
11328;SDS011;5719;42.714;23.732;2022-07-12T09:26:18;3.85;;;0.80;;
11328;SDS011;5719;42.714;23.732;2022-07-12T09:28:47;1.95;;;0.80;;
11328;SDS011;5719;42.714;23.732;2022-07-12T09:31:15;1.92;;;0.80;;
11328;SDS011;5719;42.714;23.732;2022-07-12T09:36:55;6.18;;;1.10;;
11328;SDS011;5719;42.714;23.732;2022-07-12T09:39:23;1.35;;;0.80;;
11328;SDS011;5719;42.714;23.732;2022-07-12T09:41:52;2.55;;;0.90;;
11328;SDS011;5719;42.714;23.732;2022-07-12T09:44:20;5.03;;;0.90;;
11328;SDS011;5719;42.714;23.732;2022-07-12T09:46:48;2.05;;;0.63;;
11328;SDS011;5719;42.714;23.732;2022-07-12T09:49:18;8.82;;;2.13;;
11328;SDS011;5719;42.714;23.732;2022-07-12T09:51:46;4.68;;;0.80;;
11328;SDS011;5719;42.714;23.732;2022-07-12T09:54:17;3.75;;;0.73;;
11328;SDS011;5719;42.714;23.732;2022-07-12T09:56:51;2.97;;;0.60;;
11328;SDS011;5719;42.714;23.732;2022-07-12T09:59:20;2.95;;;0.85;;
11328;SDS011;5719;42.714;23.732;2022-07-12T10:01:50;6.60;;;0.88;;
11328;SDS011;5719;42.714;23.732;2022-07-12T10:04:21;3.38;;;0.90;;
11328;SDS011;5719;42.714;23.732;2022-07-12T10:06:49;2.63;;;0.70;;
11328;SDS011;5719;42.714;23.732;2022-07-12T10:09:17;3.00;;;0.85;;
11328;SDS011;5719;42.714;23.732;2022-07-12T10:11:45;1.73;;;0.80;;
11328;SDS011;5719;42.714;23.732;2022-07-12T10:14:12;2.22;;;0.70;;
11328;SDS011;5719;42.714;23.732;2022-07-12T10:16:41;3.33;;;0.73;;
11328;SDS011;5719;42.714;23.732;2022-07-12T10:19:21;3.60;;;0.65;;
11328;SDS011;5719;42.714;23.732;2022-07-12T10:21:52;2.90;;;0.60;;
11328;SDS011;5719;42.714;23.732;2022-07-12T10:27:27;3.42;;;0.70;;
11328;SDS011;5719;42.714;23.732;2022-07-12T10:30:11;2.05;;;0.70;;
11328;SDS011;5719;42.714;23.732;2022-07-12T10:32:43;3.92;;;0.57;;
11328;SDS011;5719;42.714;23.732;2022-07-12T10:35:13;2.47;;;0.60;;
11328;SDS011;5719;42.714;23.732;2022-07-12T10:38:13;5.43;;;0.70;;
11328;SDS011;5719;42.714;23.732;2022-07-12T10:40:44;3.63;;;0.75;;
11328;SDS011;5719;42.714;23.732;2022-07-12T10:43:15;10.50;;;1.80;;
11328;SDS011;5719;42.714;23.732;2022-07-12T10:45:44;8.85;;;2.72;;
11328;SDS011;5719;42.714;23.732;2022-07-12T10:48:22;5.10;;;1.08;;
11328;SDS011;5719;42.714;23.732;2022-07-12T10:50:52;1.98;;;0.82;;
11328;SDS011;5719;42.714;23.732;2022-07-12T10:53:27;2.83;;;0.80;;
11328;SDS011;5719;42.714;23.732;2022-07-12T10:56:12;3.75;;;0.85;;
11328;SDS011;5719;42.714;23.732;2022-07-12T10:58:41;2.28;;;0.70;;
11328;SDS011;5719;42.714;23.732;2022-07-12T11:01:10;2.58;;;0.95;;
11328;SDS011;5719;42.714;23.732;2022-07-12T11:03:38;4.60;;;0.85;;
11328;SDS011;5719;42.714;23.732;2022-07-12T11:06:09;3.03;;;1.08;;
11328;SDS011;5719;42.714;23.732;2022-07-12T11:08:46;5.97;;;1.25;;
11328;SDS011;5719;42.714;23.732;2022-07-12T11:11:14;2.17;;;0.75;;
11328;SDS011;5719;42.714;23.732;2022-07-12T11:13:41;16.10;;;1.55;;
11328;SDS011;5719;42.714;23.732;2022-07-12T11:16:08;9.70;;;1.77;;
11328;SDS011;5719;42.714;23.732;2022-07-12T11:18:35;4.95;;;1.40;;
11328;SDS011;5719;42.714;23.732;2022-07-12T11:21:03;12.40;;;1.20;;
11328;SDS011;5719;42.714;23.732;2022-07-12T11:23:32;3.33;;;0.90;;
11328;SDS011;5719;42.714;23.732;2022-07-12T11:26:00;8.68;;;1.40;;
11328;SDS011;5719;42.714;23.732;2022-07-12T11:28:29;2.08;;;1.10;;
11328;SDS011;5719;42.714;23.732;2022-07-12T11:31:01;4.72;;;0.80;;
11328;SDS011;5719;42.714;23.732;2022-07-12T11:33:30;4.38;;;0.70;;
11328;SDS011;5719;42.714;23.732;2022-07-12T11:35:59;1.35;;;0.70;;
11328;SDS011;5719;42.714;23.732;2022-07-12T11:38:27;2.72;;;0.60;;
11328;SDS011;5719;42.714;23.732;2022-07-12T11:40:56;1.67;;;0.80;;
11328;SDS011;5719;42.714;23.732;2022-07-12T11:43:23;2.60;;;0.50;;
11328;SDS011;5719;42.714;23.732;2022-07-12T11:45:50;2.10;;;0.60;;
11328;SDS011;5719;42.714;23.732;2022-07-12T11:48:18;3.20;;;0.80;;
11328;SDS011;5719;42.714;23.732;2022-07-12T11:50:47;2.30;;;0.70;;
11328;SDS011;5719;42.714;23.732;2022-07-12T11:53:15;5.78;;;0.57;;
11328;SDS011;5719;42.714;23.732;2022-07-12T11:55:44;3.08;;;0.77;;
11328;SDS011;5719;42.714;23.732;2022-07-12T11:58:13;5.93;;;0.90;;
11328;SDS011;5719;42.714;23.732;2022-07-12T12:00:40;4.40;;;1.25;;
11328;SDS011;5719;42.714;23.732;2022-07-12T12:03:09;3.45;;;0.70;;
11328;SDS011;5719;42.714;23.732;2022-07-12T12:05:37;3.80;;;0.70;;
11328;SDS011;5719;42.714;23.732;2022-07-12T12:08:05;4.25;;;1.13;;
11328;SDS011;5719;42.714;23.732;2022-07-12T12:10:33;3.65;;;1.60;;
11328;SDS011;5719;42.714;23.732;2022-07-12T12:13:00;6.78;;;1.65;;
11328;SDS011;5719;42.714;23.732;2022-07-12T12:15:29;3.60;;;1.00;;
11328;SDS011;5719;42.714;23.732;2022-07-12T12:17:58;4.75;;;1.05;;
11328;SDS011;5719;42.714;23.732;2022-07-12T12:20:27;3.47;;;0.77;;
11328;SDS011;5719;42.714;23.732;2022-07-12T12:22:56;2.08;;;0.60;;
11328;SDS011;5719;42.714;23.732;2022-07-12T12:25:24;1.17;;;0.73;;
11328;SDS011;5719;42.714;23.732;2022-07-12T12:27:54;8.27;;;1.00;;
11328;SDS011;5719;42.714;23.732;2022-07-12T12:30:22;5.32;;;0.80;;
11328;SDS011;5719;42.714;23.732;2022-07-12T12:32:52;2.60;;;0.70;;
11328;SDS011;5719;42.714;23.732;2022-07-12T12:35:21;3.28;;;0.98;;
11328;SDS011;5719;42.714;23.732;2022-07-12T12:37:50;2.28;;;0.90;;
11328;SDS011;5719;42.714;23.732;2022-07-12T12:40:18;1.85;;;0.88;;
11328;SDS011;5719;42.714;23.732;2022-07-12T12:42:46;2.42;;;0.63;;
11328;SDS011;5719;42.714;23.732;2022-07-12T12:45:17;4.07;;;0.60;;
11328;SDS011;5719;42.714;23.732;2022-07-12T12:47:53;4.32;;;0.82;;
11328;SDS011;5719;42.714;23.732;2022-07-12T12:50:37;4.82;;;0.98;;
11328;SDS011;5719;42.714;23.732;2022-07-12T12:53:09;1.70;;;0.60;;
11328;SDS011;5719;42.714;23.732;2022-07-12T12:55:38;4.13;;;0.60;;
11328;SDS011;5719;42.714;23.732;2022-07-12T12:58:05;1.42;;;0.57;;
11328;SDS011;5719;42.714;23.732;2022-07-12T13:00:34;3.83;;;1.02;;
11328;SDS011;5719;42.714;23.732;2022-07-12T13:03:04;3.08;;;0.77;;
11328;SDS011;5719;42.714;23.732;2022-07-12T13:05:31;0.60;;;0.60;;
11328;SDS011;5719;42.714;23.732;2022-07-12T13:07:58;3.35;;;0.60;;
11328;SDS011;5719;42.714;23.732;2022-07-12T13:10:26;1.63;;;0.60;;
11328;SDS011;5719;42.714;23.732;2022-07-12T13:12:54;5.93;;;0.65;;
11328;SDS011;5719;42.714;23.732;2022-07-12T13:15:21;4.82;;;0.93;;
11328;SDS011;5719;42.714;23.732;2022-07-12T13:17:48;1.50;;;0.65;;
11328;SDS011;5719;42.714;23.732;2022-07-12T13:20:16;1.45;;;0.60;;
11328;SDS011;5719;42.714;23.732;2022-07-12T13:22:44;2.35;;;0.68;;
11328;SDS011;5719;42.714;23.732;2022-07-12T13:25:11;5.70;;;0.88;;
11328;SDS011;5719;42.714;23.732;2022-07-12T13:27:39;2.10;;;0.70;;
11328;SDS011;5719;42.714;23.732;2022-07-12T13:30:09;10.02;;;1.02;;
11328;SDS011;5719;42.714;23.732;2022-07-12T13:32:37;2.67;;;0.68;;
11328;SDS011;5719;42.714;23.732;2022-07-12T13:35:05;1.67;;;0.80;;
11328;SDS011;5719;42.714;23.732;2022-07-12T13:37:35;0.85;;;0.70;;
11328;SDS011;5719;42.714;23.732;2022-07-12T13:40:04;1.38;;;0.80;;
11328;SDS011;5719;42.714;23.732;2022-07-12T13:42:41;2.28;;;0.70;;
11328;SDS011;5719;42.714;23.732;2022-07-12T13:45:09;1.95;;;0.75;;
11328;SDS011;5719;42.714;23.732;2022-07-12T13:47:38;1.23;;;0.70;;
11328;SDS011;5719;42.714;23.732;2022-07-12T13:50:06;6.38;;;1.30;;
11328;SDS011;5719;42.714;23.732;2022-07-12T13:52:35;3.70;;;0.70;;
11328;SDS011;5719;42.714;23.732;2022-07-12T13:55:04;2.38;;;0.70;;
11328;SDS011;5719;42.714;23.732;2022-07-12T13:57:31;3.67;;;0.95;;
11328;SDS011;5719;42.714;23.732;2022-07-12T14:00:00;2.38;;;0.75;;
11328;SDS011;5719;42.714;23.732;2022-07-12T14:02:27;1.38;;;0.70;;
11328;SDS011;5719;42.714;23.732;2022-07-12T14:04:54;4.57;;;0.90;;
11328;SDS011;5719;42.714;23.732;2022-07-12T14:07:21;1.45;;;0.73;;
11328;SDS011;5719;42.714;23.732;2022-07-12T14:09:50;4.82;;;0.77;;
11328;SDS011;5719;42.714;23.732;2022-07-12T14:12:16;1.65;;;0.63;;
11328;SDS011;5719;42.714;23.732;2022-07-12T14:14:43;3.95;;;0.80;;
11328;SDS011;5719;42.714;23.732;2022-07-12T14:17:28;4.05;;;0.85;;
11328;SDS011;5719;42.714;23.732;2022-07-12T14:19:55;3.85;;;0.70;;
11328;SDS011;5719;42.714;23.732;2022-07-12T14:22:22;2.15;;;0.70;;
11328;SDS011;5719;42.714;23.732;2022-07-12T14:24:50;5.07;;;0.60;;
11328;SDS011;5719;42.714;23.732;2022-07-12T14:27:17;3.53;;;0.80;;
11328;SDS011;5719;42.714;23.732;2022-07-12T14:29:44;3.15;;;0.82;;
11328;SDS011;5719;42.714;23.732;2022-07-12T14:32:11;2.90;;;0.90;;
11328;SDS011;5719;42.714;23.732;2022-07-12T14:34:38;4.80;;;0.52;;
11328;SDS011;5719;42.714;23.732;2022-07-12T14:37:05;1.25;;;0.70;;
11328;SDS011;5719;42.714;23.732;2022-07-12T14:39:32;1.65;;;0.70;;
11328;SDS011;5719;42.714;23.732;2022-07-12T14:42:00;1.60;;;0.80;;
11328;SDS011;5719;42.714;23.732;2022-07-12T14:44:27;1.73;;;0.77;;
11328;SDS011;5719;42.714;23.732;2022-07-12T14:46:54;4.03;;;0.85;;
11328;SDS011;5719;42.714;23.732;2022-07-12T14:49:21;1.35;;;0.60;;
11328;SDS011;5719;42.714;23.732;2022-07-12T14:51:48;2.60;;;0.90;;
11328;SDS011;5719;42.714;23.732;2022-07-12T14:54:16;2.35;;;0.57;;
11328;SDS011;5719;42.714;23.732;2022-07-12T14:56:43;2.70;;;0.70;;
11328;SDS011;5719;42.714;23.732;2022-07-12T14:59:11;1.25;;;0.65;;
11328;SDS011;5719;42.714;23.732;2022-07-12T15:01:38;1.83;;;0.70;;